createdAt,value
2017-11-03T00:00:50.039Z,81.00
2017-11-03T00:03:16.162Z,81.30
2017-11-03T00:05:42.276Z,81.20
2017-11-03T00:08:09.142Z,81.10
2017-11-03T00:10:35.248Z,81.00
2017-11-03T00:13:02.098Z,81.20
2017-11-03T00:15:28.956Z,81.40
2017-11-03T00:17:55.063Z,81.40
2017-11-03T00:20:21.174Z,80.80
2017-11-03T00:22:47.280Z,81.40
2017-11-03T00:25:13.393Z,81.90
2017-11-03T00:27:39.495Z,81.00
2017-11-03T00:30:05.594Z,81.00
2017-11-03T00:32:31.725Z,81.80
2017-11-03T00:34:57.821Z,81.30
2017-11-03T00:37:23.954Z,81.60
2017-11-03T00:39:50.826Z,81.80
2017-11-03T00:42:16.938Z,81.30
2017-11-03T00:44:43.776Z,81.80
2017-11-03T00:47:10.605Z,82.00
2017-11-03T00:49:44.363Z,81.80
2017-11-03T00:52:10.486Z,81.80
2017-11-03T00:54:36.613Z,81.00
2017-11-03T00:57:02.737Z,81.70
2017-11-03T00:59:28.995Z,82.20
2017-11-03T01:01:55.903Z,81.70
2017-11-03T01:04:22.203Z,81.70
2017-11-03T01:06:49.178Z,81.40
2017-11-03T01:09:15.452Z,81.30
2017-11-03T01:11:41.734Z,82.30
2017-11-03T01:17:10.572Z,81.60
2017-11-03T01:19:37.520Z,81.40
2017-11-03T01:22:04.495Z,81.20
2017-11-03T01:24:30.754Z,81.20
2017-11-03T01:26:57.024Z,81.60
2017-11-03T01:29:23.241Z,81.50
2017-11-03T01:31:50.261Z,81.10
2017-11-03T01:34:16.444Z,81.10
2017-11-03T01:36:42.653Z,80.80
2017-11-03T01:39:09.655Z,80.80
2017-11-03T01:41:35.909Z,80.80
2017-11-03T01:44:02.153Z,80.80
2017-11-03T01:46:29.097Z,80.80
2017-11-03T01:48:56.123Z,80.60
2017-11-03T01:51:22.410Z,80.50
2017-11-03T01:53:48.683Z,81.20
2017-11-03T01:56:14.968Z,81.60
2017-11-03T01:58:41.198Z,81.30
2017-11-03T02:01:07.436Z,81.00
2017-11-03T02:03:33.720Z,81.20
2017-11-03T02:06:00.750Z,80.70
2017-11-03T02:08:27.783Z,81.00
2017-11-03T02:10:54.072Z,80.60
2017-11-03T02:13:20.317Z,81.00
2017-11-03T02:15:46.509Z,80.30
2017-11-03T02:18:13.514Z,80.80
2017-11-03T02:20:39.796Z,80.80
2017-11-03T02:23:06.072Z,81.20
2017-11-03T02:25:32.390Z,81.60
2017-11-03T02:27:58.679Z,81.30
2017-11-03T02:30:24.954Z,81.90
2017-11-03T02:32:51.200Z,82.00
2017-11-03T02:35:17.385Z,81.90
2017-11-03T02:37:43.619Z,81.40
2017-11-03T02:40:09.820Z,81.30
2017-11-03T02:42:36.767Z,81.80
2017-11-03T02:45:03.020Z,81.80
2017-11-03T02:47:29.320Z,82.40
2017-11-03T02:49:56.304Z,82.10
2017-11-03T02:52:22.594Z,82.10
2017-11-03T02:54:48.808Z,81.80
2017-11-03T02:57:15.047Z,82.60
2017-11-03T02:59:41.980Z,82.80
2017-11-03T03:02:08.184Z,82.70
2017-11-03T03:04:34.407Z,82.30
2017-11-03T03:07:00.592Z,82.40
2017-11-03T03:09:26.839Z,82.60
2017-11-03T03:11:53.084Z,82.30
2017-11-03T03:14:19.334Z,82.60
2017-11-03T03:16:45.627Z,82.60
2017-11-03T03:19:11.872Z,82.10
2017-11-03T03:21:38.104Z,83.60
2017-11-03T03:24:04.403Z,82.50
2017-11-03T03:26:30.748Z,82.40
2017-11-03T03:28:57.036Z,82.70
2017-11-03T03:31:24.038Z,82.50
2017-11-03T03:33:50.297Z,82.50
2017-11-03T03:36:16.583Z,82.00
2017-11-03T03:38:42.786Z,82.10
2017-11-03T03:41:09.039Z,83.00
2017-11-03T03:43:35.243Z,82.70
2017-11-03T03:46:01.523Z,82.20
2017-11-03T03:48:27.799Z,82.60
2017-11-03T03:50:54.065Z,82.50
2017-11-03T03:53:20.278Z,82.40
2017-11-03T03:55:46.562Z,82.40
2017-11-03T03:58:12.810Z,82.40
2017-11-03T04:00:39.784Z,82.80
2017-11-03T04:03:06.019Z,82.60
2017-11-03T04:05:32.291Z,82.70
2017-11-03T04:07:58.523Z,83.20
2017-11-03T04:10:24.789Z,83.50
2017-11-03T04:12:51.056Z,82.90
2017-11-03T04:15:17.304Z,83.70
2017-11-03T04:17:43.580Z,83.40
2017-11-03T04:20:09.756Z,83.40
2017-11-03T04:22:35.973Z,83.10
2017-11-03T04:25:02.213Z,83.10
2017-11-03T04:27:28.463Z,82.30
2017-11-03T04:29:55.482Z,83.00
2017-11-03T04:32:22.523Z,84.20
2017-11-03T04:34:48.775Z,84.30
2017-11-03T04:37:15.814Z,83.20
2017-11-03T04:39:42.089Z,83.10
2017-11-03T04:42:08.376Z,83.30
2017-11-03T04:44:34.604Z,83.30
2017-11-03T04:47:00.931Z,83.60
2017-11-03T04:49:27.176Z,83.00
2017-11-03T04:51:54.193Z,83.10
2017-11-03T04:54:20.428Z,83.10
2017-11-03T04:56:46.594Z,82.30
2017-11-03T04:59:13.574Z,81.90
2017-11-03T05:01:39.782Z,81.80
2017-11-03T05:04:06.043Z,82.00
2017-11-03T05:06:32.215Z,82.00
2017-11-03T05:08:59.171Z,82.20
2017-11-03T05:11:26.169Z,82.20
2017-11-03T05:13:52.424Z,82.20
2017-11-03T05:16:19.413Z,81.50
2017-11-03T05:18:45.648Z,81.50
2017-11-03T05:21:11.860Z,81.80
2017-11-03T05:23:38.095Z,81.90
2017-11-03T05:26:04.320Z,81.90
2017-11-03T05:28:30.573Z,81.80
2017-11-03T05:30:56.793Z,81.50
2017-11-03T05:33:23.012Z,81.40
2017-11-03T05:35:49.300Z,81.90
2017-11-03T05:38:16.274Z,81.50
2017-11-03T05:40:42.592Z,81.50
2017-11-03T05:43:08.776Z,81.60
2017-11-03T05:45:35.051Z,81.90
2017-11-03T05:48:02.065Z,81.00
2017-11-03T05:50:28.298Z,80.90
2017-11-03T05:52:54.550Z,80.80
2017-11-03T05:55:21.512Z,81.40
2017-11-03T05:57:47.796Z,81.40
2017-11-03T06:00:14.065Z,80.90
2017-11-03T06:02:40.347Z,80.80
2017-11-03T06:05:07.348Z,81.00
2017-11-03T06:07:33.564Z,80.90
2017-11-03T06:09:59.852Z,80.40
2017-11-03T06:12:26.076Z,80.70
2017-11-03T06:14:52.349Z,80.20
2017-11-03T06:17:19.338Z,82.80
2017-11-03T06:19:45.554Z,82.80
2017-11-03T06:22:11.774Z,81.80
2017-11-03T06:24:37.999Z,80.90
2017-11-03T06:27:04.235Z,81.80
2017-11-03T06:29:30.584Z,81.20
2017-11-03T06:31:57.786Z,81.00
2017-11-03T06:34:24.744Z,82.90
2017-11-03T06:36:51.673Z,82.50
2017-11-03T06:39:18.666Z,81.90
2017-11-03T06:41:44.884Z,81.90
2017-11-03T06:44:11.139Z,82.50
2017-11-03T06:46:38.247Z,82.40
2017-11-03T06:49:04.496Z,82.70
2017-11-03T06:51:30.764Z,83.20
2017-11-03T06:53:57.754Z,84.10
2017-11-03T06:56:23.976Z,84.20
2017-11-03T06:58:50.233Z,83.90
2017-11-03T07:01:16.503Z,83.30
2017-11-03T07:03:42.752Z,83.60
2017-11-03T07:06:09.783Z,85.00
2017-11-03T07:08:36.824Z,84.80
2017-11-03T07:11:03.123Z,84.80
2017-11-03T07:13:29.450Z,84.20
2017-11-03T07:15:55.706Z,84.60
2017-11-03T07:18:21.948Z,84.30
2017-11-03T07:20:48.954Z,85.10
2017-11-03T07:23:15.208Z,84.80
2017-11-03T07:25:41.446Z,84.80
2017-11-03T07:28:07.837Z,85.00
2017-11-03T07:30:34.096Z,84.70
2017-11-03T07:33:01.122Z,84.80
2017-11-03T07:35:28.285Z,84.80
2017-11-03T07:37:55.850Z,84.80
2017-11-03T07:40:23.247Z,84.50
2017-11-03T07:42:50.212Z,84.60
2017-11-03T07:45:16.391Z,84.60
2017-11-03T07:47:43.367Z,84.50
2017-11-03T07:50:09.590Z,84.50
2017-11-03T07:52:36.514Z,85.10
2017-11-03T07:55:02.804Z,85.10
2017-11-03T07:57:29.080Z,84.80
2017-11-03T07:59:56.095Z,84.50
2017-11-03T08:02:22.371Z,84.40
2017-11-03T08:04:49.344Z,85.50
2017-11-03T08:07:15.628Z,85.50
2017-11-03T08:09:42.677Z,84.50
2017-11-03T08:12:09.719Z,84.80
2017-11-03T08:14:36.792Z,84.90
2017-11-03T08:17:03.041Z,84.90
2017-11-03T08:19:29.277Z,85.80
2017-11-03T08:21:55.519Z,84.20
2017-11-03T08:24:21.806Z,84.30
2017-11-03T08:26:48.833Z,84.80
2017-11-03T08:29:15.804Z,85.00
2017-11-03T08:31:42.798Z,85.00
2017-11-03T08:34:09.006Z,85.00
2017-11-03T08:36:35.255Z,84.70
2017-11-03T08:39:01.462Z,84.90
2017-11-03T08:41:27.663Z,84.60
2017-11-03T08:43:53.936Z,83.30
2017-11-03T08:46:20.278Z,84.60
2017-11-03T08:48:47.388Z,86.00
2017-11-03T08:51:13.623Z,85.80
2017-11-03T08:53:39.914Z,86.20
2017-11-03T08:56:06.931Z,85.10
2017-11-03T08:58:33.171Z,85.10
2017-11-03T09:00:59.483Z,85.90
2017-11-03T09:03:25.776Z,85.70
2017-11-03T09:05:52.047Z,85.40
2017-11-03T09:08:18.318Z,84.60
2017-11-03T09:10:45.300Z,83.50
2017-11-03T09:13:11.565Z,83.40
2017-11-03T09:15:37.992Z,84.50
2017-11-03T09:18:04.231Z,84.80
2017-11-03T09:20:30.487Z,85.00
2017-11-03T09:22:57.517Z,84.70
2017-11-03T09:25:24.504Z,85.10
2017-11-03T09:27:50.820Z,85.10
2017-11-03T09:30:18.140Z,84.30
2017-11-03T09:32:44.429Z,85.00
2017-11-03T09:35:10.735Z,85.10
2017-11-03T09:37:37.020Z,85.00
2017-11-03T09:40:03.352Z,84.10
2017-11-03T09:42:29.579Z,84.10
2017-11-03T09:44:55.799Z,83.90
2017-11-03T09:47:22.226Z,83.80
2017-11-03T09:49:48.503Z,83.80
2017-11-03T09:52:14.785Z,84.40
2017-11-03T09:54:41.008Z,84.50
2017-11-03T09:57:07.291Z,83.70
2017-11-03T09:59:34.323Z,83.90
2017-11-03T10:02:01.320Z,83.90
2017-11-03T10:04:27.547Z,83.90
2017-11-03T10:06:53.811Z,83.20
2017-11-03T10:09:20.036Z,82.80
2017-11-03T10:11:46.275Z,81.80
2017-11-03T10:14:12.556Z,81.60
2017-11-03T10:16:38.805Z,81.40
2017-11-03T10:19:05.040Z,80.90
2017-11-03T10:21:31.279Z,80.40
2017-11-03T10:23:57.525Z,80.70
2017-11-03T10:26:23.822Z,80.70
2017-11-03T10:28:50.073Z,80.40
2017-11-03T10:31:17.123Z,77.70
2017-11-03T10:33:44.132Z,76.70
2017-11-03T10:36:10.420Z,76.20
2017-11-03T10:38:36.626Z,79.70
2017-11-03T10:41:02.881Z,75.60
2017-11-03T10:43:29.852Z,73.90
2017-11-03T10:45:56.060Z,74.00
2017-11-03T10:48:23.024Z,72.00
2017-11-03T10:50:49.330Z,71.90
2017-11-03T10:53:16.293Z,69.60
2017-11-03T10:55:42.539Z,69.70
2017-11-03T10:58:08.785Z,71.90
2017-11-03T11:00:34.991Z,71.40
2017-11-03T11:03:01.264Z,66.50
2017-11-03T11:05:27.598Z,66.10
2017-11-03T11:07:53.800Z,66.00
2017-11-03T11:10:20.009Z,64.70
2017-11-03T11:12:46.272Z,60.30
2017-11-03T11:15:12.599Z,62.60
2017-11-03T11:17:38.867Z,59.70
2017-11-03T11:20:05.876Z,60.90
2017-11-03T11:22:32.211Z,60.80
2017-11-03T11:24:58.468Z,60.60
2017-11-03T11:27:25.490Z,56.50
2017-11-03T11:29:51.701Z,56.40
2017-11-03T11:32:17.990Z,57.20
2017-11-03T11:34:44.238Z,55.80
2017-11-03T11:37:10.489Z,53.80
2017-11-03T11:39:36.705Z,55.60
2017-11-03T11:42:02.924Z,58.30
2017-11-03T11:44:29.262Z,58.10
2017-11-03T11:46:55.514Z,56.90
2017-11-03T11:49:21.713Z,57.70
2017-11-03T11:51:48.018Z,57.40
2017-11-03T11:54:14.263Z,59.60
2017-11-03T11:56:40.503Z,61.00
2017-11-03T11:59:06.741Z,57.00
2017-11-03T12:01:33.061Z,57.60
2017-11-03T12:03:59.368Z,55.90
2017-11-03T12:06:25.651Z,56.20
2017-11-03T12:08:51.919Z,56.90
2017-11-03T12:11:18.984Z,53.90
2017-11-03T12:13:45.296Z,53.90
2017-11-03T12:16:12.304Z,56.20
2017-11-03T12:18:38.560Z,56.10
2017-11-03T12:21:05.587Z,54.00
2017-11-03T12:23:31.875Z,53.80
2017-11-03T12:25:58.126Z,53.00
2017-11-03T12:28:24.397Z,51.00
2017-11-03T12:30:51.427Z,48.60
2017-11-03T12:33:17.743Z,48.80
2017-11-03T12:35:45.043Z,50.00
2017-11-03T12:38:12.173Z,51.10
2017-11-03T12:40:39.820Z,48.60
2017-11-03T12:43:06.236Z,48.50
2017-11-03T12:45:32.538Z,51.10
2017-11-03T12:47:58.786Z,50.80
2017-11-03T12:50:25.023Z,49.40
2017-11-03T12:52:51.272Z,48.60
2017-11-03T12:55:17.555Z,47.50
2017-11-03T12:57:43.824Z,47.40
2017-11-03T13:00:10.082Z,45.80
2017-11-03T13:02:37.118Z,47.30
2017-11-03T13:05:04.179Z,47.70
2017-11-03T13:07:31.205Z,47.60
2017-11-03T13:09:58.968Z,49.10
2017-11-03T13:12:25.203Z,49.00
2017-11-03T13:14:52.259Z,47.60
2017-11-03T13:17:19.289Z,46.70
2017-11-03T13:19:45.626Z,46.60
2017-11-03T13:22:11.853Z,48.50
2017-11-03T13:24:38.085Z,49.10
2017-11-03T13:27:05.096Z,47.70
2017-11-03T13:29:31.391Z,47.60
2017-11-03T13:31:57.692Z,47.60
2017-11-03T13:34:24.651Z,49.60
2017-11-03T13:36:51.699Z,48.70
2017-11-03T13:39:18.741Z,49.30
2017-11-03T13:41:45.813Z,48.10
2017-11-03T13:44:12.113Z,48.10
2017-11-03T13:46:38.378Z,47.10
2017-11-03T13:49:04.723Z,47.40
2017-11-03T13:51:30.983Z,47.30
2017-11-03T13:53:57.187Z,46.80
2017-11-03T13:56:23.510Z,48.00
2017-11-03T13:58:49.741Z,50.50
2017-11-03T14:01:16.074Z,52.30
2017-11-03T14:03:42.355Z,53.20
2017-11-03T14:06:09.432Z,55.00
2017-11-03T14:08:35.774Z,55.00
2017-11-03T14:11:01.993Z,55.30
2017-11-03T14:13:28.252Z,52.80
2017-11-03T14:15:54.472Z,51.00
2017-11-03T14:18:20.807Z,51.00
2017-11-03T14:20:47.203Z,51.90
2017-11-03T14:23:13.458Z,53.50
2017-11-03T14:25:39.721Z,54.90
2017-11-03T14:28:06.508Z,55.10
2017-11-03T14:30:32.716Z,55.80
2017-11-03T14:32:59.644Z,56.80
2017-11-03T14:35:25.860Z,56.60
2017-11-03T14:37:52.091Z,57.10
2017-11-03T14:40:18.394Z,57.60
2017-11-03T14:42:44.667Z,57.90
2017-11-03T14:45:11.666Z,58.70
2017-11-03T14:47:37.922Z,58.60
2017-11-03T14:50:04.233Z,58.80
2017-11-03T14:52:30.488Z,59.80
2017-11-03T14:54:56.719Z,59.60
2017-11-03T14:57:23.012Z,58.40
2017-11-03T14:59:49.249Z,59.30
2017-11-03T15:02:15.502Z,59.10
2017-11-03T15:04:41.806Z,59.60
2017-11-03T15:07:08.012Z,59.60
2017-11-03T15:09:34.223Z,59.50
2017-11-03T15:12:01.234Z,60.40
2017-11-03T15:14:27.511Z,60.40
2017-11-03T15:16:53.767Z,60.30
2017-11-03T15:19:20.031Z,60.00
2017-11-03T15:21:46.363Z,61.20
2017-11-03T15:24:12.579Z,61.30
2017-11-03T15:26:38.935Z,61.40
2017-11-03T15:29:05.918Z,62.90
2017-11-03T15:31:32.266Z,62.90
2017-11-03T15:33:58.576Z,63.20
2017-11-03T15:36:24.834Z,63.60
2017-11-03T15:38:51.080Z,64.30
2017-11-03T15:41:17.280Z,65.40
2017-11-03T15:43:43.486Z,64.80
2017-11-03T15:46:09.710Z,64.80
2017-11-03T15:48:35.956Z,65.30
2017-11-03T15:51:02.226Z,65.40
2017-11-03T15:53:28.471Z,65.60
2017-11-03T15:55:55.470Z,66.90
2017-11-03T15:58:21.751Z,66.50
2017-11-03T16:00:48.760Z,66.40
2017-11-03T16:03:15.012Z,66.30
2017-11-03T16:05:41.325Z,66.30
2017-11-03T16:08:07.544Z,67.20
2017-11-03T16:10:33.778Z,66.90
2017-11-03T16:13:00.058Z,67.90
2017-11-03T16:15:26.290Z,68.20
2017-11-03T16:17:52.533Z,68.00
2017-11-03T16:20:18.742Z,68.20
2017-11-03T16:22:44.995Z,69.50
2017-11-03T16:25:11.228Z,69.40
2017-11-03T16:27:37.432Z,69.20
2017-11-03T16:30:04.462Z,68.60
2017-11-03T16:32:31.453Z,69.40
2017-11-03T16:34:57.675Z,69.40
2017-11-03T16:37:23.889Z,69.00
2017-11-03T16:39:50.145Z,69.40
2017-11-03T16:42:16.441Z,69.60
2017-11-03T16:44:42.714Z,70.10
2017-11-03T16:47:09.006Z,70.00
2017-11-03T16:49:35.241Z,70.50
2017-11-03T16:52:01.480Z,70.30
2017-11-03T16:54:27.745Z,70.20
2017-11-03T16:56:53.967Z,70.00
2017-11-03T16:59:20.313Z,70.10
2017-11-03T17:01:46.614Z,70.20
2017-11-03T17:04:12.860Z,70.50
2017-11-03T17:06:39.142Z,71.00
2017-11-03T17:09:05.351Z,70.00
2017-11-03T17:11:32.384Z,70.60
2017-11-03T17:13:58.689Z,70.60
2017-11-03T17:16:24.991Z,70.50
2017-11-03T17:18:51.216Z,70.00
2017-11-03T17:21:17.446Z,70.90
2017-11-03T17:23:43.625Z,71.00
2017-11-03T17:26:09.881Z,71.30
2017-11-03T17:28:36.111Z,70.60
2017-11-03T17:31:02.347Z,70.60
2017-11-03T17:33:28.615Z,71.40
2017-11-03T17:35:54.858Z,70.70
2017-11-03T17:38:21.064Z,70.70
2017-11-03T17:40:47.323Z,71.00
2017-11-03T17:43:13.603Z,70.90
2017-11-03T17:45:39.832Z,71.00
2017-11-03T17:48:06.118Z,71.40
2017-11-03T17:50:32.333Z,71.20
2017-11-03T17:52:58.502Z,71.00
2017-11-03T17:55:24.770Z,71.30
2017-11-03T17:57:51.023Z,71.20
2017-11-03T18:00:17.377Z,71.30
2017-11-03T18:02:44.358Z,71.00
2017-11-03T18:05:10.642Z,70.90
2017-11-03T18:07:37.592Z,71.00
2017-11-03T18:10:04.599Z,72.40
2017-11-03T18:12:31.639Z,71.60
2017-11-03T18:14:57.943Z,71.60
2017-11-03T18:17:24.140Z,71.70
2017-11-03T18:19:51.094Z,73.10
2017-11-03T18:22:18.141Z,72.80
2017-11-03T18:24:45.106Z,73.10
2017-11-03T18:27:11.369Z,73.10
2017-11-03T18:29:37.644Z,73.20
2017-11-03T18:32:04.720Z,73.30
2017-11-03T18:34:30.958Z,73.20
2017-11-03T18:36:57.266Z,72.90
2017-11-03T18:39:23.512Z,73.40
2017-11-03T18:41:49.796Z,72.60
2017-11-03T18:44:16.171Z,72.90
2017-11-03T18:46:42.480Z,73.60
2017-11-03T18:49:08.715Z,73.50
2017-11-03T18:51:34.963Z,74.20
2017-11-03T18:54:01.188Z,73.80
2017-11-03T18:56:27.502Z,74.00
2017-11-03T18:58:53.781Z,73.40
2017-11-03T19:01:20.011Z,73.90
2017-11-03T19:03:46.295Z,74.50
2017-11-03T19:06:12.528Z,73.90
2017-11-03T19:08:38.828Z,73.80
2017-11-03T19:11:05.822Z,74.50
2017-11-03T19:13:32.449Z,74.40
2017-11-03T19:15:58.864Z,74.10
2017-11-03T19:18:26.159Z,74.60
2017-11-03T19:20:53.499Z,75.10
2017-11-03T19:23:19.949Z,74.30
2017-11-03T19:25:46.672Z,74.30
2017-11-03T19:28:13.214Z,74.30
2017-11-03T19:30:39.763Z,74.20
2017-11-03T19:33:06.979Z,74.20
2017-11-03T19:35:33.294Z,74.10
2017-11-03T19:38:00.321Z,74.50
2017-11-03T19:40:26.571Z,74.40
2017-11-03T19:42:53.538Z,74.00
2017-11-03T19:45:19.791Z,74.00
2017-11-03T19:47:46.036Z,74.90
2017-11-03T19:50:12.888Z,75.50
2017-11-03T19:52:39.189Z,74.80
2017-11-03T19:55:05.458Z,74.90
2017-11-03T19:57:32.540Z,76.00
2017-11-03T19:59:58.825Z,75.20
2017-11-03T20:02:25.085Z,75.40
2017-11-03T20:04:52.078Z,74.90
2017-11-03T20:07:18.377Z,75.00
2017-11-03T20:09:44.603Z,75.10
2017-11-03T20:12:10.865Z,75.40
2017-11-03T20:14:37.117Z,75.50
2017-11-03T20:17:03.423Z,75.20
2017-11-03T20:19:29.668Z,75.80
2017-11-03T20:21:55.919Z,75.40
2017-11-03T20:24:22.876Z,76.20
2017-11-03T20:26:49.943Z,75.40
2017-11-03T20:29:16.205Z,75.40
2017-11-03T20:31:42.443Z,75.30
2017-11-03T20:34:08.648Z,75.80
2017-11-03T20:36:34.903Z,75.90
2017-11-03T20:39:01.129Z,76.00
2017-11-03T20:41:27.427Z,76.10
2017-11-03T20:43:54.448Z,76.10
2017-11-03T20:46:21.449Z,76.00
2017-11-03T20:48:47.723Z,75.90
2017-11-03T20:51:14.679Z,76.30
2017-11-03T20:53:41.692Z,76.30
2017-11-03T20:56:07.920Z,75.70
2017-11-03T20:58:34.994Z,75.90
2017-11-03T21:01:02.007Z,77.10
2017-11-03T21:03:29.933Z,76.90
2017-11-03T21:05:56.203Z,76.90
2017-11-03T21:08:23.276Z,76.50
2017-11-03T21:10:50.239Z,76.00
2017-11-03T21:13:16.551Z,76.00
2017-11-03T21:15:43.582Z,76.00
2017-11-03T21:18:10.563Z,76.50
2017-11-03T21:20:36.857Z,76.50
2017-11-03T21:23:03.828Z,76.70
2017-11-03T21:25:30.781Z,76.80
2017-11-03T21:27:57.142Z,76.80
2017-11-03T21:30:23.383Z,76.60
2017-11-03T21:32:49.696Z,76.60
2017-11-03T21:35:15.923Z,76.90
2017-11-03T21:37:42.113Z,76.20
2017-11-03T21:40:09.099Z,76.00
2017-11-03T21:42:35.346Z,76.00
2017-11-03T21:45:01.622Z,76.20
2017-11-03T21:47:28.601Z,75.60
2017-11-03T21:49:54.884Z,75.60
2017-11-03T21:52:21.900Z,76.00
2017-11-03T21:54:48.183Z,75.70
2017-11-03T21:57:14.420Z,76.00
2017-11-03T21:59:40.643Z,75.90
2017-11-03T22:02:06.876Z,76.50
2017-11-03T22:04:33.152Z,76.00
2017-11-03T22:06:59.391Z,76.30
2017-11-03T22:09:26.384Z,75.90
2017-11-03T22:11:52.587Z,75.90
2017-11-03T22:14:19.521Z,76.70
2017-11-03T22:16:45.725Z,76.60
2017-11-03T22:19:11.964Z,76.40
2017-11-03T22:21:38.963Z,77.00
2017-11-03T22:24:05.187Z,76.20
2017-11-03T22:26:31.390Z,76.20
2017-11-03T22:28:58.370Z,76.30
2017-11-03T22:31:24.580Z,76.20
2017-11-03T22:33:51.571Z,76.20
2017-11-03T22:36:17.787Z,76.20
2017-11-03T22:38:44.035Z,75.90
2017-11-03T22:41:10.351Z,75.80
2017-11-03T22:43:36.621Z,75.70
2017-11-03T22:46:03.615Z,77.90
2017-11-03T22:48:29.881Z,77.20
2017-11-03T22:50:56.150Z,76.60
2017-11-03T22:53:22.423Z,76.00
2017-11-03T22:55:48.699Z,76.80
2017-11-03T22:58:15.679Z,76.20
2017-11-03T23:00:41.891Z,76.10
2017-11-03T23:03:08.068Z,76.30
2017-11-03T23:05:34.319Z,76.20
2017-11-03T23:08:01.275Z,76.30
2017-11-03T23:10:28.254Z,76.50
2017-11-03T23:12:54.455Z,76.50
2017-11-03T23:15:20.726Z,76.50
2017-11-03T23:17:46.969Z,76.10
2017-11-03T23:20:13.226Z,76.40
2017-11-03T23:22:40.232Z,77.00
2017-11-03T23:25:06.463Z,77.00
2017-11-03T23:27:32.744Z,76.50
2017-11-03T23:29:59.714Z,75.90
2017-11-03T23:32:25.928Z,76.00
2017-11-03T23:34:52.117Z,76.50
2017-11-03T23:37:19.139Z,76.30
2017-11-03T23:39:45.366Z,76.40
2017-11-03T23:42:11.545Z,76.70
2017-11-03T23:44:38.542Z,76.60
2017-11-03T23:47:04.768Z,76.60
2017-11-03T23:49:31.051Z,76.50
2017-11-03T23:51:58.078Z,76.90
2017-11-03T23:54:24.279Z,76.90
2017-11-03T23:56:50.588Z,76.30
2017-11-03T23:59:16.837Z,76.60
